sensor_id;sensor_type;location;lat;lon;timestamp;P1;durP1;ratioP1;P2;durP2;ratioP2
69172;SDS011;56280;49.662;8.408;2023-04-25T00:02:24;11.40;;;10.50;;
69172;SDS011;56280;49.662;8.408;2023-04-25T00:04:49;10.03;;;9.20;;
69172;SDS011;56280;49.662;8.408;2023-04-25T00:07:15;8.77;;;7.97;;
69172;SDS011;56280;49.662;8.408;2023-04-25T00:09:41;9.47;;;8.67;;
69172;SDS011;56280;49.662;8.408;2023-04-25T00:12:06;10.75;;;9.90;;
69172;SDS011;56280;49.662;8.408;2023-04-25T00:14:32;8.77;;;7.87;;
69172;SDS011;56280;49.662;8.408;2023-04-25T00:17:00;7.90;;;7.10;;
69172;SDS011;56280;49.662;8.408;2023-04-25T00:19:26;7.78;;;6.97;;
69172;SDS011;56280;49.662;8.408;2023-04-25T00:21:53;7.60;;;6.80;;
69172;SDS011;56280;49.662;8.408;2023-04-25T00:24:19;10.23;;;9.23;;
69172;SDS011;56280;49.662;8.408;2023-04-25T00:26:44;9.47;;;8.67;;
69172;SDS011;56280;49.662;8.408;2023-04-25T00:29:10;10.37;;;9.47;;
69172;SDS011;56280;49.662;8.408;2023-04-25T00:31:35;8.47;;;7.77;;
69172;SDS011;56280;49.662;8.408;2023-04-25T00:34:00;10.67;;;9.80;;
69172;SDS011;56280;49.662;8.408;2023-04-25T00:36:26;10.57;;;9.67;;
69172;SDS011;56280;49.662;8.408;2023-04-25T00:38:52;9.48;;;8.68;;
69172;SDS011;56280;49.662;8.408;2023-04-25T00:41:18;9.90;;;9.02;;
69172;SDS011;56280;49.662;8.408;2023-04-25T00:43:44;12.40;;;11.43;;
69172;SDS011;56280;49.662;8.408;2023-04-25T00:46:11;9.85;;;9.05;;
69172;SDS011;56280;49.662;8.408;2023-04-25T00:48:36;9.53;;;8.63;;
69172;SDS011;56280;49.662;8.408;2023-04-25T00:51:01;8.83;;;7.93;;
69172;SDS011;56280;49.662;8.408;2023-04-25T00:53:27;9.27;;;8.37;;
69172;SDS011;56280;49.662;8.408;2023-04-25T00:55:53;9.95;;;9.05;;
69172;SDS011;56280;49.662;8.408;2023-04-25T00:58:20;11.27;;;10.27;;
69172;SDS011;56280;49.662;8.408;2023-04-25T01:00:46;12.82;;;11.73;;
69172;SDS011;56280;49.662;8.408;2023-04-25T01:03:13;11.48;;;10.38;;
69172;SDS011;56280;49.662;8.408;2023-04-25T01:05:41;13.43;;;12.32;;
69172;SDS011;56280;49.662;8.408;2023-04-25T01:08:07;14.05;;;12.95;;
69172;SDS011;56280;49.662;8.408;2023-04-25T01:10:32;14.43;;;13.13;;
69172;SDS011;56280;49.662;8.408;2023-04-25T01:12:57;13.32;;;12.13;;
69172;SDS011;56280;49.662;8.408;2023-04-25T01:15:23;14.77;;;13.43;;
69172;SDS011;56280;49.662;8.408;2023-04-25T01:17:48;14.07;;;12.87;;
69172;SDS011;56280;49.662;8.408;2023-04-25T01:20:14;13.07;;;11.80;;
69172;SDS011;56280;49.662;8.408;2023-04-25T01:22:40;14.93;;;13.52;;
69172;SDS011;56280;49.662;8.408;2023-04-25T01:25:06;12.95;;;11.60;;
69172;SDS011;56280;49.662;8.408;2023-04-25T01:27:32;15.13;;;13.73;;
69172;SDS011;56280;49.662;8.408;2023-04-25T01:29:58;15.00;;;13.60;;
69172;SDS011;56280;49.662;8.408;2023-04-25T01:32:24;13.53;;;11.93;;
69172;SDS011;56280;49.662;8.408;2023-04-25T01:34:50;15.40;;;13.90;;
69172;SDS011;56280;49.662;8.408;2023-04-25T01:37:16;15.83;;;14.13;;
69172;SDS011;56280;49.662;8.408;2023-04-25T01:39:42;17.10;;;15.40;;
69172;SDS011;56280;49.662;8.408;2023-04-25T01:42:07;17.83;;;15.20;;
69172;SDS011;56280;49.662;8.408;2023-04-25T01:44:33;19.30;;;17.47;;
69172;SDS011;56280;49.662;8.408;2023-04-25T01:46:58;18.27;;;16.43;;
69172;SDS011;56280;49.662;8.408;2023-04-25T01:49:23;18.50;;;16.70;;
69172;SDS011;56280;49.662;8.408;2023-04-25T01:51:49;17.47;;;15.77;;
69172;SDS011;56280;49.662;8.408;2023-04-25T01:54:14;17.20;;;15.60;;
69172;SDS011;56280;49.662;8.408;2023-04-25T01:56:40;17.75;;;15.95;;
69172;SDS011;56280;49.662;8.408;2023-04-25T01:59:05;17.98;;;16.27;;
69172;SDS011;56280;49.662;8.408;2023-04-25T02:01:30;18.92;;;17.02;;
69172;SDS011;56280;49.662;8.408;2023-04-25T02:03:56;18.08;;;16.17;;
69172;SDS011;56280;49.662;8.408;2023-04-25T02:06:22;19.48;;;17.60;;
69172;SDS011;56280;49.662;8.408;2023-04-25T02:08:48;18.60;;;16.80;;
69172;SDS011;56280;49.662;8.408;2023-04-25T02:11:13;17.13;;;15.43;;
69172;SDS011;56280;49.662;8.408;2023-04-25T02:13:38;16.17;;;14.48;;
69172;SDS011;56280;49.662;8.408;2023-04-25T02:16:04;14.27;;;12.77;;
69172;SDS011;56280;49.662;8.408;2023-04-25T02:18:29;17.23;;;15.53;;
69172;SDS011;56280;49.662;8.408;2023-04-25T02:20:56;15.63;;;14.02;;
69172;SDS011;56280;49.662;8.408;2023-04-25T02:23:22;16.85;;;15.15;;
69172;SDS011;56280;49.662;8.408;2023-04-25T02:25:48;16.93;;;15.33;;
69172;SDS011;56280;49.662;8.408;2023-04-25T02:28:13;17.15;;;15.45;;
69172;SDS011;56280;49.662;8.408;2023-04-25T02:30:39;15.97;;;14.37;;
69172;SDS011;56280;49.662;8.408;2023-04-25T02:33:04;17.53;;;15.93;;
69172;SDS011;56280;49.662;8.408;2023-04-25T02:35:29;14.40;;;12.93;;
69172;SDS011;56280;49.662;8.408;2023-04-25T02:37:55;15.38;;;13.98;;
69172;SDS011;56280;49.662;8.408;2023-04-25T02:40:20;14.48;;;13.07;;
69172;SDS011;56280;49.662;8.408;2023-04-25T02:42:45;13.57;;;12.17;;
69172;SDS011;56280;49.662;8.408;2023-04-25T02:45:11;13.80;;;12.40;;
69172;SDS011;56280;49.662;8.408;2023-04-25T02:47:36;13.38;;;12.05;;
69172;SDS011;56280;49.662;8.408;2023-04-25T02:50:02;14.90;;;13.40;;
69172;SDS011;56280;49.662;8.408;2023-04-25T02:52:27;15.53;;;14.03;;
69172;SDS011;56280;49.662;8.408;2023-04-25T02:54:52;16.23;;;14.63;;
69172;SDS011;56280;49.662;8.408;2023-04-25T02:57:18;16.27;;;14.67;;
69172;SDS011;56280;49.662;8.408;2023-04-25T02:59:43;15.67;;;14.17;;
69172;SDS011;56280;49.662;8.408;2023-04-25T03:02:09;15.57;;;14.13;;
69172;SDS011;56280;49.662;8.408;2023-04-25T03:04:34;13.35;;;11.95;;
69172;SDS011;56280;49.662;8.408;2023-04-25T03:07:00;16.02;;;13.25;;
69172;SDS011;56280;49.662;8.408;2023-04-25T03:09:25;14.48;;;12.68;;
69172;SDS011;56280;49.662;8.408;2023-04-25T03:11:51;16.50;;;14.87;;
69172;SDS011;56280;49.662;8.408;2023-04-25T03:14:16;16.40;;;14.90;;
69172;SDS011;56280;49.662;8.408;2023-04-25T03:16:42;14.87;;;13.33;;
69172;SDS011;56280;49.662;8.408;2023-04-25T03:19:07;17.10;;;15.50;;
69172;SDS011;56280;49.662;8.408;2023-04-25T03:21:32;18.33;;;16.53;;
69172;SDS011;56280;49.662;8.408;2023-04-25T03:24:02;18.70;;;17.00;;
69172;SDS011;56280;49.662;8.408;2023-04-25T03:26:28;17.98;;;16.48;;
69172;SDS011;56280;49.662;8.408;2023-04-25T03:28:54;15.27;;;13.77;;
69172;SDS011;56280;49.662;8.408;2023-04-25T03:31:19;16.43;;;14.83;;
69172;SDS011;56280;49.662;8.408;2023-04-25T03:33:45;15.25;;;13.65;;
69172;SDS011;56280;49.662;8.408;2023-04-25T03:36:10;19.40;;;17.50;;
69172;SDS011;56280;49.662;8.408;2023-04-25T03:38:35;22.90;;;20.90;;
69172;SDS011;56280;49.662;8.408;2023-04-25T03:41:01;22.20;;;20.40;;
69172;SDS011;56280;49.662;8.408;2023-04-25T03:43:27;22.70;;;20.70;;
69172;SDS011;56280;49.662;8.408;2023-04-25T03:45:52;20.25;;;18.45;;
69172;SDS011;56280;49.662;8.408;2023-04-25T03:48:18;22.20;;;20.30;;
69172;SDS011;56280;49.662;8.408;2023-04-25T03:50:46;20.10;;;18.30;;
69172;SDS011;56280;49.662;8.408;2023-04-25T03:53:11;23.87;;;21.87;;
69172;SDS011;56280;49.662;8.408;2023-04-25T03:55:36;23.70;;;21.80;;
69172;SDS011;56280;49.662;8.408;2023-04-25T03:58:02;23.43;;;21.53;;
69172;SDS011;56280;49.662;8.408;2023-04-25T04:00:27;22.87;;;20.97;;
69172;SDS011;56280;49.662;8.408;2023-04-25T04:02:52;23.13;;;21.23;;
69172;SDS011;56280;49.662;8.408;2023-04-25T04:05:17;25.50;;;23.50;;
69172;SDS011;56280;49.662;8.408;2023-04-25T04:07:43;23.53;;;21.63;;
69172;SDS011;56280;49.662;8.408;2023-04-25T04:10:11;22.53;;;20.70;;
69172;SDS011;56280;49.662;8.408;2023-04-25T04:12:37;23.65;;;21.80;;
69172;SDS011;56280;49.662;8.408;2023-04-25T04:15:03;20.83;;;19.13;;
69172;SDS011;56280;49.662;8.408;2023-04-25T04:17:29;23.35;;;21.40;;
69172;SDS011;56280;49.662;8.408;2023-04-25T04:19:55;21.23;;;19.53;;
69172;SDS011;56280;49.662;8.408;2023-04-25T04:22:20;24.53;;;22.63;;
69172;SDS011;56280;49.662;8.408;2023-04-25T04:24:46;23.52;;;21.70;;
69172;SDS011;56280;49.662;8.408;2023-04-25T04:27:12;22.60;;;20.83;;
69172;SDS011;56280;49.662;8.408;2023-04-25T04:29:37;22.37;;;20.57;;
69172;SDS011;56280;49.662;8.408;2023-04-25T04:32:03;21.57;;;19.87;;
69172;SDS011;56280;49.662;8.408;2023-04-25T04:34:28;22.13;;;20.33;;
69172;SDS011;56280;49.662;8.408;2023-04-25T04:36:54;21.80;;;20.00;;
69172;SDS011;56280;49.662;8.408;2023-04-25T04:39:19;24.27;;;22.38;;
69172;SDS011;56280;49.662;8.408;2023-04-25T04:41:45;25.67;;;23.57;;
69172;SDS011;56280;49.662;8.408;2023-04-25T04:44:11;23.25;;;21.35;;
69172;SDS011;56280;49.662;8.408;2023-04-25T04:46:37;25.07;;;23.07;;
69172;SDS011;56280;49.662;8.408;2023-04-25T04:49:08;22.63;;;20.83;;
69172;SDS011;56280;49.662;8.408;2023-04-25T04:51:33;24.50;;;22.60;;
69172;SDS011;56280;49.662;8.408;2023-04-25T04:53:59;23.52;;;21.73;;
69172;SDS011;56280;49.662;8.408;2023-04-25T04:56:27;28.67;;;26.48;;
69172;SDS011;56280;49.662;8.408;2023-04-25T04:58:58;24.02;;;22.08;;
69172;SDS011;56280;49.662;8.408;2023-04-25T05:01:23;24.35;;;22.42;;
69172;SDS011;56280;49.662;8.408;2023-04-25T05:03:49;23.17;;;21.37;;
69172;SDS011;56280;49.662;8.408;2023-04-25T05:06:16;25.38;;;23.48;;
69172;SDS011;56280;49.662;8.408;2023-04-25T05:08:43;24.48;;;22.52;;
69172;SDS011;56280;49.662;8.408;2023-04-25T05:11:08;25.93;;;23.97;;
69172;SDS011;56280;49.662;8.408;2023-04-25T05:13:33;24.37;;;22.47;;
69172;SDS011;56280;49.662;8.408;2023-04-25T05:15:58;23.83;;;21.80;;
69172;SDS011;56280;49.662;8.408;2023-04-25T05:18:24;27.35;;;25.20;;
69172;SDS011;56280;49.662;8.408;2023-04-25T05:20:49;24.60;;;22.60;;
69172;SDS011;56280;49.662;8.408;2023-04-25T05:23:14;23.60;;;21.70;;
69172;SDS011;56280;49.662;8.408;2023-04-25T05:25:40;25.52;;;23.63;;
69172;SDS011;56280;49.662;8.408;2023-04-25T05:28:05;26.53;;;24.33;;
69172;SDS011;56280;49.662;8.408;2023-04-25T05:30:31;25.73;;;23.73;;
69172;SDS011;56280;49.662;8.408;2023-04-25T05:32:56;23.97;;;22.07;;
69172;SDS011;56280;49.662;8.408;2023-04-25T05:35:21;23.80;;;22.00;;
69172;SDS011;56280;49.662;8.408;2023-04-25T05:37:47;23.63;;;21.83;;
69172;SDS011;56280;49.662;8.408;2023-04-25T05:40:12;26.07;;;23.97;;
69172;SDS011;56280;49.662;8.408;2023-04-25T05:42:37;26.47;;;24.37;;
69172;SDS011;56280;49.662;8.408;2023-04-25T05:45:03;26.97;;;24.77;;
69172;SDS011;56280;49.662;8.408;2023-04-25T05:47:29;27.15;;;25.00;;
69172;SDS011;56280;49.662;8.408;2023-04-25T05:49:54;29.20;;;26.93;;
69172;SDS011;56280;49.662;8.408;2023-04-25T05:52:20;28.30;;;25.90;;
69172;SDS011;56280;49.662;8.408;2023-04-25T05:54:45;26.63;;;24.23;;
69172;SDS011;56280;49.662;8.408;2023-04-25T05:57:23;27.63;;;25.20;;
69172;SDS011;56280;49.662;8.408;2023-04-25T05:59:49;26.13;;;23.60;;
69172;SDS011;56280;49.662;8.408;2023-04-25T06:02:15;25.27;;;22.90;;
69172;SDS011;56280;49.662;8.408;2023-04-25T06:04:41;26.75;;;24.25;;
69172;SDS011;56280;49.662;8.408;2023-04-25T06:07:06;26.67;;;23.87;;
69172;SDS011;56280;49.662;8.408;2023-04-25T06:09:31;26.70;;;23.90;;
69172;SDS011;56280;49.662;8.408;2023-04-25T06:11:56;26.50;;;23.80;;
69172;SDS011;56280;49.662;8.408;2023-04-25T06:14:22;26.73;;;23.47;;
69172;SDS011;56280;49.662;8.408;2023-04-25T06:16:47;28.07;;;25.13;;
69172;SDS011;56280;49.662;8.408;2023-04-25T06:19:12;30.07;;;25.57;;
69172;SDS011;56280;49.662;8.408;2023-04-25T06:21:38;26.17;;;23.37;;
69172;SDS011;56280;49.662;8.408;2023-04-25T06:24:03;26.90;;;24.10;;
69172;SDS011;56280;49.662;8.408;2023-04-25T06:26:28;28.50;;;25.63;;
69172;SDS011;56280;49.662;8.408;2023-04-25T06:28:54;27.50;;;24.73;;
69172;SDS011;56280;49.662;8.408;2023-04-25T06:31:19;26.55;;;23.58;;
69172;SDS011;56280;49.662;8.408;2023-04-25T06:33:44;27.27;;;24.37;;
69172;SDS011;56280;49.662;8.408;2023-04-25T06:36:09;27.33;;;23.00;;
69172;SDS011;56280;49.662;8.408;2023-04-25T06:38:35;27.10;;;24.30;;
69172;SDS011;56280;49.662;8.408;2023-04-25T06:41:00;31.60;;;28.30;;
69172;SDS011;56280;49.662;8.408;2023-04-25T06:43:26;28.67;;;25.87;;
69172;SDS011;56280;49.662;8.408;2023-04-25T06:45:51;26.70;;;23.63;;
69172;SDS011;56280;49.662;8.408;2023-04-25T06:48:16;29.27;;;26.23;;
69172;SDS011;56280;49.662;8.408;2023-04-25T06:50:41;25.30;;;22.53;;
69172;SDS011;56280;49.662;8.408;2023-04-25T06:53:07;27.50;;;24.63;;
69172;SDS011;56280;49.662;8.408;2023-04-25T06:55:33;28.27;;;23.30;;
69172;SDS011;56280;49.662;8.408;2023-04-25T06:57:59;30.88;;;27.60;;
69172;SDS011;56280;49.662;8.408;2023-04-25T07:00:25;28.90;;;25.50;;
69172;SDS011;56280;49.662;8.408;2023-04-25T07:02:50;28.83;;;26.03;;
69172;SDS011;56280;49.662;8.408;2023-04-25T07:05:16;29.67;;;25.63;;
69172;SDS011;56280;49.662;8.408;2023-04-25T07:07:41;31.50;;;28.13;;
69172;SDS011;56280;49.662;8.408;2023-04-25T07:10:06;27.43;;;23.80;;
69172;SDS011;56280;49.662;8.408;2023-04-25T07:12:32;32.87;;;29.87;;
69172;SDS011;56280;49.662;8.408;2023-04-25T07:14:57;28.07;;;24.60;;
69172;SDS011;56280;49.662;8.408;2023-04-25T07:17:22;27.70;;;24.90;;
69172;SDS011;56280;49.662;8.408;2023-04-25T07:19:47;27.70;;;24.70;;
69172;SDS011;56280;49.662;8.408;2023-04-25T07:22:13;26.53;;;23.40;;
69172;SDS011;56280;49.662;8.408;2023-04-25T07:24:38;28.60;;;25.60;;
69172;SDS011;56280;49.662;8.408;2023-04-25T07:27:04;25.77;;;22.95;;
69172;SDS011;56280;49.662;8.408;2023-04-25T07:29:29;27.70;;;24.70;;
69172;SDS011;56280;49.662;8.408;2023-04-25T07:31:55;26.63;;;23.92;;
69172;SDS011;56280;49.662;8.408;2023-04-25T07:34:20;28.33;;;23.90;;
69172;SDS011;56280;49.662;8.408;2023-04-25T07:36:45;28.13;;;24.90;;
69172;SDS011;56280;49.662;8.408;2023-04-25T07:39:11;29.20;;;26.30;;
69172;SDS011;56280;49.662;8.408;2023-04-25T07:41:36;25.03;;;22.43;;
69172;SDS011;56280;49.662;8.408;2023-04-25T07:44:01;26.98;;;24.00;;
69172;SDS011;56280;49.662;8.408;2023-04-25T07:46:27;26.73;;;23.98;;
69172;SDS011;56280;49.662;8.408;2023-04-25T07:48:52;25.90;;;23.27;;
69172;SDS011;56280;49.662;8.408;2023-04-25T07:51:17;25.07;;;22.57;;
69172;SDS011;56280;49.662;8.408;2023-04-25T07:53:45;23.83;;;21.43;;
69172;SDS011;56280;49.662;8.408;2023-04-25T07:56:10;25.73;;;23.15;;
69172;SDS011;56280;49.662;8.408;2023-04-25T07:58:36;25.70;;;22.90;;
69172;SDS011;56280;49.662;8.408;2023-04-25T08:01:01;25.40;;;22.87;;
69172;SDS011;56280;49.662;8.408;2023-04-25T08:03:27;23.60;;;21.20;;
69172;SDS011;56280;49.662;8.408;2023-04-25T08:05:52;23.90;;;21.40;;
69172;SDS011;56280;49.662;8.408;2023-04-25T08:08:17;25.63;;;23.07;;
69172;SDS011;56280;49.662;8.408;2023-04-25T08:10:43;26.30;;;23.70;;
69172;SDS011;56280;49.662;8.408;2023-04-25T08:13:08;24.80;;;21.97;;
69172;SDS011;56280;49.662;8.408;2023-04-25T08:15:33;23.33;;;20.93;;
69172;SDS011;56280;49.662;8.408;2023-04-25T08:17:58;25.33;;;22.70;;
69172;SDS011;56280;49.662;8.408;2023-04-25T08:20:24;26.73;;;24.23;;
69172;SDS011;56280;49.662;8.408;2023-04-25T08:22:50;24.20;;;21.63;;
69172;SDS011;56280;49.662;8.408;2023-04-25T08:25:15;26.57;;;24.10;;
69172;SDS011;56280;49.662;8.408;2023-04-25T08:27:40;26.00;;;23.40;;
69172;SDS011;56280;49.662;8.408;2023-04-25T08:30:06;23.60;;;20.30;;
69172;SDS011;56280;49.662;8.408;2023-04-25T08:32:33;23.10;;;20.93;;
69172;SDS011;56280;49.662;8.408;2023-04-25T08:34:58;25.47;;;22.93;;
69172;SDS011;56280;49.662;8.408;2023-04-25T08:37:24;23.77;;;21.33;;
69172;SDS011;56280;49.662;8.408;2023-04-25T08:39:49;24.30;;;21.90;;
69172;SDS011;56280;49.662;8.408;2023-04-25T08:42:17;22.10;;;19.90;;
69172;SDS011;56280;49.662;8.408;2023-04-25T08:44:43;26.53;;;24.03;;
69172;SDS011;56280;49.662;8.408;2023-04-25T08:47:10;23.53;;;21.33;;
69172;SDS011;56280;49.662;8.408;2023-04-25T08:49:35;26.43;;;23.80;;
69172;SDS011;56280;49.662;8.408;2023-04-25T08:52:03;24.27;;;21.88;;
69172;SDS011;56280;49.662;8.408;2023-04-25T08:54:31;24.15;;;21.80;;
69172;SDS011;56280;49.662;8.408;2023-04-25T08:56:57;21.95;;;19.63;;
69172;SDS011;56280;49.662;8.408;2023-04-25T08:59:27;24.38;;;21.58;;
69172;SDS011;56280;49.662;8.408;2023-04-25T09:01:53;22.35;;;20.23;;
69172;SDS011;56280;49.662;8.408;2023-04-25T09:04:18;21.20;;;19.10;;
69172;SDS011;56280;49.662;8.408;2023-04-25T09:06:45;17.98;;;15.93;;
69172;SDS011;56280;49.662;8.408;2023-04-25T09:09:11;19.58;;;17.50;;
69172;SDS011;56280;49.662;8.408;2023-04-25T09:11:37;22.33;;;20.13;;
69172;SDS011;56280;49.662;8.408;2023-04-25T09:21:50;11.83;;;6.20;;
69172;SDS011;56280;49.662;8.408;2023-04-25T09:27:06;13.05;;;6.78;;
69172;SDS011;56280;49.662;8.408;2023-04-25T09:29:37;12.52;;;6.30;;
69172;SDS011;56280;49.662;8.408;2023-04-25T09:34:44;13.13;;;6.60;;
69172;SDS011;56280;49.662;8.408;2023-04-25T09:37:16;12.75;;;6.45;;
69172;SDS011;56280;49.662;8.408;2023-04-25T09:39:44;12.10;;;6.20;;
69172;SDS011;56280;49.662;8.408;2023-04-25T09:42:10;12.20;;;5.93;;
69172;SDS011;56280;49.662;8.408;2023-04-25T09:44:36;12.50;;;5.47;;
69172;SDS011;56280;49.662;8.408;2023-04-25T09:47:01;8.87;;;5.23;;
69172;SDS011;56280;49.662;8.408;2023-04-25T09:49:27;11.75;;;5.60;;
69172;SDS011;56280;49.662;8.408;2023-04-25T09:51:53;10.07;;;4.70;;
69172;SDS011;56280;49.662;8.408;2023-04-25T09:54:20;9.90;;;4.63;;
69172;SDS011;56280;49.662;8.408;2023-04-25T09:56:45;10.27;;;4.55;;
69172;SDS011;56280;49.662;8.408;2023-04-25T09:59:13;8.55;;;4.72;;
69172;SDS011;56280;49.662;8.408;2023-04-25T10:01:40;8.90;;;4.53;;
69172;SDS011;56280;49.662;8.408;2023-04-25T10:04:08;9.13;;;3.92;;
69172;SDS011;56280;49.662;8.408;2023-04-25T10:06:36;9.38;;;3.90;;
69172;SDS011;56280;49.662;8.408;2023-04-25T10:09:03;9.15;;;4.22;;
69172;SDS011;56280;49.662;8.408;2023-04-25T10:11:29;7.43;;;4.13;;
69172;SDS011;56280;49.662;8.408;2023-04-25T10:13:56;10.38;;;5.20;;
69172;SDS011;56280;49.662;8.408;2023-04-25T10:16:22;8.18;;;6.57;;
69172;SDS011;56280;49.662;8.408;2023-04-25T10:18:49;9.93;;;5.20;;
69172;SDS011;56280;49.662;8.408;2023-04-25T10:21:15;10.10;;;4.55;;
69172;SDS011;56280;49.662;8.408;2023-04-25T10:23:41;9.73;;;4.10;;
69172;SDS011;56280;49.662;8.408;2023-04-25T10:26:07;7.90;;;3.70;;
69172;SDS011;56280;49.662;8.408;2023-04-25T10:28:56;8.55;;;4.10;;
69172;SDS011;56280;49.662;8.408;2023-04-25T10:31:23;7.70;;;4.72;;
69172;SDS011;56280;49.662;8.408;2023-04-25T10:33:48;9.20;;;6.40;;
69172;SDS011;56280;49.662;8.408;2023-04-25T10:36:15;9.40;;;7.00;;
69172;SDS011;56280;49.662;8.408;2023-04-25T10:38:43;14.97;;;13.67;;
69172;SDS011;56280;49.662;8.408;2023-04-25T10:41:09;16.10;;;14.67;;
69172;SDS011;56280;49.662;8.408;2023-04-25T10:43:37;16.40;;;14.70;;
69172;SDS011;56280;49.662;8.408;2023-04-25T10:48:50;15.68;;;14.38;;
69172;SDS011;56280;49.662;8.408;2023-04-25T10:53:45;15.77;;;14.37;;
69172;SDS011;56280;49.662;8.408;2023-04-25T10:58:42;10.30;;;7.33;;
69172;SDS011;56280;49.662;8.408;2023-04-25T11:01:09;10.43;;;6.55;;
69172;SDS011;56280;49.662;8.408;2023-04-25T11:03:38;10.30;;;5.77;;
69172;SDS011;56280;49.662;8.408;2023-04-25T11:06:06;8.87;;;5.03;;
69172;SDS011;56280;49.662;8.408;2023-04-25T11:08:48;9.07;;;4.88;;
69172;SDS011;56280;49.662;8.408;2023-04-25T11:11:15;9.68;;;5.38;;
69172;SDS011;56280;49.662;8.408;2023-04-25T11:13:42;7.72;;;4.70;;
69172;SDS011;56280;49.662;8.408;2023-04-25T11:16:07;12.37;;;5.57;;
69172;SDS011;56280;49.662;8.408;2023-04-25T11:18:33;8.20;;;4.83;;
69172;SDS011;56280;49.662;8.408;2023-04-25T11:20:59;9.43;;;4.68;;
69172;SDS011;56280;49.662;8.408;2023-04-25T11:23:24;7.70;;;4.80;;
69172;SDS011;56280;49.662;8.408;2023-04-25T11:25:51;9.73;;;5.32;;
69172;SDS011;56280;49.662;8.408;2023-04-25T11:28:20;7.47;;;5.03;;
69172;SDS011;56280;49.662;8.408;2023-04-25T11:30:48;9.55;;;5.43;;
69172;SDS011;56280;49.662;8.408;2023-04-25T11:33:15;8.90;;;4.97;;
69172;SDS011;56280;49.662;8.408;2023-04-25T11:35:40;7.90;;;5.10;;
69172;SDS011;56280;49.662;8.408;2023-04-25T11:38:05;8.37;;;4.90;;
69172;SDS011;56280;49.662;8.408;2023-04-25T11:40:31;10.23;;;5.40;;
69172;SDS011;56280;49.662;8.408;2023-04-25T11:42:56;8.77;;;5.60;;
69172;SDS011;56280;49.662;8.408;2023-04-25T11:45:25;9.45;;;5.60;;
69172;SDS011;56280;49.662;8.408;2023-04-25T11:47:51;9.87;;;5.73;;
69172;SDS011;56280;49.662;8.408;2023-04-25T11:50:17;9.07;;;5.53;;
69172;SDS011;56280;49.662;8.408;2023-04-25T11:52:43;9.48;;;5.50;;
69172;SDS011;56280;49.662;8.408;2023-04-25T11:55:19;10.35;;;6.28;;
69172;SDS011;56280;49.662;8.408;2023-04-25T11:57:46;8.93;;;5.87;;
69172;SDS011;56280;49.662;8.408;2023-04-25T12:00:20;9.52;;;5.70;;
69172;SDS011;56280;49.662;8.408;2023-04-25T12:02:46;9.80;;;5.63;;
69172;SDS011;56280;49.662;8.408;2023-04-25T12:05:15;10.35;;;6.38;;
69172;SDS011;56280;49.662;8.408;2023-04-25T12:07:44;10.20;;;5.85;;
69172;SDS011;56280;49.662;8.408;2023-04-25T12:10:11;10.45;;;6.72;;
69172;SDS011;56280;49.662;8.408;2023-04-25T12:12:38;9.80;;;5.80;;
69172;SDS011;56280;49.662;8.408;2023-04-25T12:17:44;10.60;;;6.15;;
69172;SDS011;56280;49.662;8.408;2023-04-25T12:20:12;12.15;;;6.55;;
69172;SDS011;56280;49.662;8.408;2023-04-25T12:22:43;9.80;;;5.82;;
69172;SDS011;56280;49.662;8.408;2023-04-25T12:25:11;11.50;;;5.80;;
69172;SDS011;56280;49.662;8.408;2023-04-25T12:27:38;13.17;;;5.97;;
69172;SDS011;56280;49.662;8.408;2023-04-25T12:30:07;10.98;;;6.45;;
69172;SDS011;56280;49.662;8.408;2023-04-25T12:32:33;11.35;;;6.20;;
69172;SDS011;56280;49.662;8.408;2023-04-25T12:34:58;12.30;;;6.83;;
69172;SDS011;56280;49.662;8.408;2023-04-25T12:37:23;11.37;;;7.40;;
69172;SDS011;56280;49.662;8.408;2023-04-25T12:39:49;14.17;;;6.60;;
69172;SDS011;56280;49.662;8.408;2023-04-25T12:42:15;10.45;;;6.38;;
69172;SDS011;56280;49.662;8.408;2023-04-25T12:44:40;13.17;;;6.80;;
69172;SDS011;56280;49.662;8.408;2023-04-25T12:47:06;11.90;;;7.07;;
69172;SDS011;56280;49.662;8.408;2023-04-25T12:49:31;14.50;;;7.03;;
69172;SDS011;56280;49.662;8.408;2023-04-25T12:51:57;12.33;;;6.60;;
69172;SDS011;56280;49.662;8.408;2023-04-25T12:54:22;11.93;;;6.40;;
69172;SDS011;56280;49.662;8.408;2023-04-25T12:56:47;11.43;;;6.17;;
69172;SDS011;56280;49.662;8.408;2023-04-25T12:59:13;12.37;;;6.57;;
69172;SDS011;56280;49.662;8.408;2023-04-25T13:01:38;12.73;;;6.17;;
69172;SDS011;56280;49.662;8.408;2023-04-25T13:04:04;10.87;;;6.30;;
69172;SDS011;56280;49.662;8.408;2023-04-25T13:06:29;12.03;;;5.50;;
69172;SDS011;56280;49.662;8.408;2023-04-25T13:08:55;13.63;;;6.60;;
69172;SDS011;56280;49.662;8.408;2023-04-25T13:11:21;10.10;;;5.83;;
69172;SDS011;56280;49.662;8.408;2023-04-25T13:13:46;13.80;;;6.63;;
69172;SDS011;56280;49.662;8.408;2023-04-25T13:16:11;16.93;;;6.57;;
69172;SDS011;56280;49.662;8.408;2023-04-25T13:18:39;14.30;;;6.80;;
69172;SDS011;56280;49.662;8.408;2023-04-25T13:21:04;11.18;;;6.28;;
69172;SDS011;56280;49.662;8.408;2023-04-25T13:23:30;14.07;;;6.13;;
69172;SDS011;56280;49.662;8.408;2023-04-25T13:25:55;13.70;;;5.90;;
69172;SDS011;56280;49.662;8.408;2023-04-25T13:28:25;11.20;;;5.55;;
69172;SDS011;56280;49.662;8.408;2023-04-25T13:30:51;12.30;;;5.60;;
69172;SDS011;56280;49.662;8.408;2023-04-25T13:33:16;11.10;;;5.37;;
69172;SDS011;56280;49.662;8.408;2023-04-25T13:35:42;11.52;;;5.50;;
69172;SDS011;56280;49.662;8.408;2023-04-25T13:38:07;10.50;;;4.88;;
69172;SDS011;56280;49.662;8.408;2023-04-25T13:40:33;8.47;;;4.73;;
69172;SDS011;56280;49.662;8.408;2023-04-25T13:42:59;11.48;;;5.25;;
69172;SDS011;56280;49.662;8.408;2023-04-25T13:45:25;11.57;;;4.87;;
69172;SDS011;56280;49.662;8.408;2023-04-25T13:47:50;10.43;;;5.20;;
69172;SDS011;56280;49.662;8.408;2023-04-25T13:50:15;11.97;;;6.00;;
69172;SDS011;56280;49.662;8.408;2023-04-25T13:52:41;11.47;;;5.70;;
69172;SDS011;56280;49.662;8.408;2023-04-25T13:55:07;13.23;;;6.30;;
69172;SDS011;56280;49.662;8.408;2023-04-25T13:57:33;11.53;;;6.23;;
69172;SDS011;56280;49.662;8.408;2023-04-25T13:59:59;10.80;;;5.38;;
69172;SDS011;56280;49.662;8.408;2023-04-25T14:02:24;11.23;;;5.83;;
69172;SDS011;56280;49.662;8.408;2023-04-25T14:04:50;12.02;;;5.45;;
69172;SDS011;56280;49.662;8.408;2023-04-25T14:07:16;11.27;;;5.67;;
69172;SDS011;56280;49.662;8.408;2023-04-25T14:09:41;12.37;;;5.73;;
69172;SDS011;56280;49.662;8.408;2023-04-25T14:12:07;12.13;;;5.65;;
69172;SDS011;56280;49.662;8.408;2023-04-25T14:14:32;12.10;;;5.37;;
69172;SDS011;56280;49.662;8.408;2023-04-25T14:16:57;11.03;;;4.87;;
69172;SDS011;56280;49.662;8.408;2023-04-25T14:19:22;11.47;;;5.00;;
69172;SDS011;56280;49.662;8.408;2023-04-25T14:21:48;11.10;;;5.17;;
69172;SDS011;56280;49.662;8.408;2023-04-25T14:24:14;10.43;;;4.90;;
69172;SDS011;56280;49.662;8.408;2023-04-25T14:26:39;10.87;;;4.90;;
69172;SDS011;56280;49.662;8.408;2023-04-25T14:29:05;10.73;;;4.85;;
69172;SDS011;56280;49.662;8.408;2023-04-25T14:31:32;10.38;;;4.80;;
69172;SDS011;56280;49.662;8.408;2023-04-25T14:33:57;10.23;;;4.68;;
69172;SDS011;56280;49.662;8.408;2023-04-25T14:36:23;10.73;;;5.10;;
69172;SDS011;56280;49.662;8.408;2023-04-25T14:38:48;7.50;;;4.30;;
69172;SDS011;56280;49.662;8.408;2023-04-25T14:41:13;9.30;;;4.97;;
69172;SDS011;56280;49.662;8.408;2023-04-25T14:43:38;9.93;;;4.80;;
69172;SDS011;56280;49.662;8.408;2023-04-25T14:46:07;8.25;;;5.00;;